Time;durP1;ratioP1;P1;durP2;ratioP2;P2;SDS_P1;SDS_P2;PMS_P1;PMS_P2;Temp;Humidity;BMP_temperature;BMP_pressure;BME280_temperature;BME280_humidity;BME280_pressure;Samples;Min_cycle;Max_cycle;Signal;HPM_P1;HPM_P2
2022/01/21 00:00:49;;;;;;;0.40;0.40;;;0.40;99.90;;;;;;5033012;28;20218;-77
2022/01/21 00:03:15;;;;;;;0.40;0.40;;;0.30;99.90;;;;;;5032375;28;20212;-78
2022/01/21 00:05:42;;;;;;;0.40;0.40;;;0.30;99.90;;;;;;5031972;28;20569;-79
2022/01/21 00:08:09;;;;;;;0.40;0.40;;;0.30;99.90;;;;;;5032361;28;20194;-77
2022/01/21 00:10:37;;;;;;;0.40;0.40;;;0.30;99.90;;;;;;5031237;28;20260;-78
2022/01/21 00:13:13;;;;;;;0.40;0.30;;;0.30;99.90;;;;;;5031827;28;20225;-78
2022/01/21 00:15:40;;;;;;;0.40;0.40;;;0.30;99.90;;;;;;5032135;28;20182;-78
2022/01/21 00:18:08;;;;;;;0.40;0.40;;;0.30;99.90;;;;;;5031744;28;20213;-77
2022/01/21 00:31:38;;;;;;;0.40;0.40;;;0.60;99.90;;;;;;4992603;28;20578;-78
2022/01/21 00:34:05;;;;;;;0.90;0.90;;;0.70;99.90;;;;;;5030855;28;20202;-76
2022/01/21 00:36:33;;;;;;;0.40;0.40;;;0.70;99.90;;;;;;5031828;28;20198;-78
2022/01/21 00:38:59;;;;;;;0.40;0.40;;;0.70;99.90;;;;;;5030757;28;20190;-76
2022/01/21 00:41:32;;;;;;;0.40;0.40;;;0.80;99.90;;;;;;5031004;28;20800;-78
2022/01/21 00:43:58;;;;;;;0.40;0.30;;;0.80;99.90;;;;;;5031612;28;20645;-76
2022/01/21 00:46:25;;;;;;;0.40;0.30;;;0.80;99.90;;;;;;5031268;28;20202;-78
2022/01/21 00:48:52;;;;;;;0.40;0.40;;;0.80;99.90;;;;;;5031174;28;20195;-78
2022/01/21 00:51:18;;;;;;;0.40;0.40;;;0.70;99.90;;;;;;5031021;28;20221;-78
2022/01/21 00:53:45;;;;;;;1.35;1.25;;;0.60;99.90;;;;;;5031210;28;20199;-77
2022/01/21 00:56:12;;;;;;;0.40;0.40;;;0.60;99.90;;;;;;5031073;28;20202;-77
2022/01/21 00:58:40;;;;;;;0.40;0.40;;;0.60;99.90;;;;;;5031462;28;20196;-77
2022/01/21 01:01:07;;;;;;;0.40;0.40;;;0.60;99.90;;;;;;5030906;28;20221;-77
2022/01/21 01:03:33;;;;;;;0.40;0.40;;;0.60;99.90;;;;;;5031137;28;20194;-77
2022/01/21 01:06:00;;;;;;;0.40;0.40;;;0.70;99.90;;;;;;5031560;28;20222;-78
2022/01/21 01:08:27;;;;;;;0.40;0.40;;;0.80;99.90;;;;;;5030795;28;20640;-78
2022/01/21 01:11:16;;;;;;;0.40;0.30;;;0.80;99.90;;;;;;5030783;28;20232;-78
2022/01/21 01:21:58;;;;;;;0.40;0.40;;;0.70;99.90;;;;;;5030370;28;20211;-77
2022/01/21 01:29:55;;;;;;;0.40;0.40;;;0.50;99.90;;;;;;5030748;28;20174;-78
2022/01/21 01:32:23;;;;;;;0.40;0.40;;;0.60;99.90;;;;;;5030653;28;20214;-78
2022/01/21 01:34:50;;;;;;;0.40;0.30;;;0.60;99.90;;;;;;5030518;28;20206;-78
2022/01/21 01:37:30;;;;;;;0.40;0.40;;;0.60;99.90;;;;;;5031018;28;20557;-77
2022/01/21 01:40:13;;;;;;;0.40;0.40;;;0.60;99.90;;;;;;5030536;28;20188;-77
2022/01/21 01:51:06;;;;;;;0.40;0.30;;;0.50;99.90;;;;;;5109221;28;20214;-77
2022/01/21 01:53:36;;;;;;;0.40;0.40;;;0.60;99.90;;;;;;5109220;28;20191;-78
2022/01/21 01:56:07;;;;;;;0.40;0.30;;;0.70;99.90;;;;;;5109495;28;20197;-77
2022/01/21 01:58:36;;;;;;;0.40;0.40;;;0.80;99.90;;;;;;5109275;28;20196;-78
2022/01/21 02:01:05;;;;;;;0.40;0.30;;;0.80;99.90;;;;;;5108908;28;20243;-77
2022/01/21 02:03:33;;;;;;;0.40;0.30;;;0.90;99.90;;;;;;5109289;28;20219;-78
2022/01/21 02:06:00;;;;;;;0.40;0.40;;;0.90;99.90;;;;;;5109089;28;20193;-76
2022/01/21 02:08:28;;;;;;;0.40;0.40;;;0.90;99.90;;;;;;5108759;28;20196;-78
2022/01/21 02:10:55;;;;;;;0.40;0.40;;;1.00;99.90;;;;;;5108635;28;20215;-77
2022/01/21 02:13:25;;;;;;;0.40;0.30;;;1.00;99.90;;;;;;5109176;28;20574;-78
2022/01/21 02:16:08;;;;;;;0.50;0.47;;;1.00;99.90;;;;;;5108809;28;20188;-78
2022/01/21 02:21:34;;;;;;;0.40;0.40;;;1.00;99.90;;;;;;5107976;28;20215;-78
2022/01/21 02:24:04;;;;;;;0.50;0.50;;;1.00;99.90;;;;;;5108675;28;20207;-78
2022/01/21 02:26:31;;;;;;;0.40;0.40;;;0.90;99.90;;;;;;5108642;28;20562;-77
2022/01/21 02:29:00;;;;;;;0.40;0.40;;;0.80;99.90;;;;;;5108098;28;20184;-77
2022/01/21 02:31:27;;;;;;;0.40;0.40;;;0.80;99.90;;;;;;5108376;28;20254;-77
2022/01/21 02:33:54;;;;;;;0.40;0.40;;;0.70;99.90;;;;;;5108555;28;20191;-77
2022/01/21 02:36:20;;;;;;;0.40;0.40;;;0.70;99.90;;;;;;5108456;28;20195;-78
2022/01/21 02:38:48;;;;;;;0.40;0.40;;;0.60;99.90;;;;;;5108196;28;20196;-75
2022/01/21 02:41:15;;;;;;;0.40;0.40;;;0.60;99.90;;;;;;5108261;28;20226;-78
2022/01/21 02:43:42;;;;;;;0.40;0.30;;;0.50;99.90;;;;;;5108015;28;20220;-77
2022/01/21 02:46:10;;;;;;;0.40;0.40;;;0.50;99.90;;;;;;5108236;28;20201;-77
2022/01/21 02:48:38;;;;;;;0.93;0.93;;;0.50;99.90;;;;;;5108261;28;20207;-77
2022/01/21 02:51:06;;;;;;;0.40;0.40;;;0.50;99.90;;;;;;5107833;28;20218;-76
2022/01/21 02:56:23;;;;;;;0.40;0.40;;;0.40;99.90;;;;;;5096890;28;20551;-78
2022/01/21 02:58:50;;;;;;;0.40;0.40;;;0.40;99.90;;;;;;5094530;28;20555;-78
2022/01/21 03:01:18;;;;;;;0.40;0.40;;;0.50;99.90;;;;;;5094246;28;20560;-77
2022/01/21 03:03:46;;;;;;;0.40;0.40;;;0.60;99.90;;;;;;5094306;28;20292;-77
2022/01/21 03:06:15;;;;;;;0.47;0.45;;;0.60;99.90;;;;;;5094168;28;20196;-77
2022/01/21 03:08:43;;;;;;;0.40;0.30;;;0.70;99.90;;;;;;5094429;28;20203;-77
2022/01/21 03:11:12;;;;;;;0.40;0.35;;;0.80;99.90;;;;;;5093981;28;20247;-77
2022/01/21 03:13:40;;;;;;;0.40;0.40;;;0.80;99.90;;;;;;5094244;28;20540;-77
2022/01/21 03:16:07;;;;;;;0.40;0.30;;;0.80;99.90;;;;;;5093813;28;20204;-78
2022/01/21 03:18:33;;;;;;;1.25;0.95;;;0.80;99.90;;;;;;5094374;28;20200;-78
2022/01/21 03:21:00;;;;;;;0.40;0.40;;;0.90;99.90;;;;;;5093220;28;20228;-78
2022/01/21 03:23:29;;;;;;;0.40;0.40;;;0.90;99.90;;;;;;5093873;28;20540;-78
2022/01/21 03:25:56;;;;;;;0.40;0.40;;;0.90;99.90;;;;;;5093683;28;20311;-77
2022/01/21 03:28:23;;;;;;;0.40;0.40;;;0.90;99.90;;;;;;5093789;28;20209;-78
2022/01/21 03:30:55;;;;;;;0.40;0.40;;;0.90;99.90;;;;;;5093727;28;20213;-76
2022/01/21 03:33:22;;;;;;;0.73;0.73;;;0.90;99.90;;;;;;5093656;28;20614;-78
2022/01/21 03:35:51;;;;;;;0.40;0.40;;;0.80;99.90;;;;;;5093820;28;20662;-78
2022/01/21 03:38:18;;;;;;;0.40;0.40;;;0.80;99.90;;;;;;5093956;28;20202;-77
2022/01/21 03:40:45;;;;;;;0.40;0.40;;;0.80;99.90;;;;;;5092995;28;20399;-78
2022/01/21 03:43:12;;;;;;;0.82;0.82;;;0.70;99.90;;;;;;5093362;28;20223;-77
2022/01/21 03:45:38;;;;;;;0.40;0.40;;;0.70;99.90;;;;;;5093867;28;20236;-77
2022/01/21 03:48:07;;;;;;;0.40;0.30;;;0.70;99.90;;;;;;5093312;28;20193;-77
2022/01/21 03:50:33;;;;;;;0.40;0.40;;;0.60;99.90;;;;;;5092844;28;20216;-78
2022/01/21 03:53:02;;;;;;;0.40;0.40;;;0.60;99.90;;;;;;5093584;28;20192;-78
2022/01/21 03:55:30;;;;;;;0.40;0.40;;;0.60;99.90;;;;;;5093571;28;20196;-78
2022/01/21 03:57:57;;;;;;;0.40;0.40;;;0.60;99.90;;;;;;5093091;28;20202;-77
2022/01/21 04:00:29;;;;;;;0.40;0.40;;;0.60;99.90;;;;;;5093072;28;20220;-78
2022/01/21 04:02:56;;;;;;;0.40;0.40;;;0.60;99.90;;;;;;5093123;28;20203;-77
2022/01/21 04:05:24;;;;;;;0.40;0.40;;;0.60;99.90;;;;;;5093042;28;20704;-78
2022/01/21 04:07:51;;;;;;;0.40;0.40;;;0.60;99.90;;;;;;5092390;28;20605;-78
2022/01/21 04:10:18;;;;;;;0.40;0.40;;;0.60;99.90;;;;;;5092830;28;20216;-77
2022/01/21 04:12:45;;;;;;;3.05;0.45;;;0.50;99.90;;;;;;5093351;28;20197;-78
2022/01/21 04:15:12;;;;;;;0.40;0.40;;;0.50;99.90;;;;;;5093402;28;20197;-77
2022/01/21 04:17:39;;;;;;;0.40;0.40;;;0.60;99.90;;;;;;5093325;28;20196;-78
2022/01/21 04:20:08;;;;;;;0.40;0.40;;;0.60;99.90;;;;;;5093346;28;20196;-78
2022/01/21 04:22:37;;;;;;;0.40;0.40;;;0.50;99.90;;;;;;5092624;28;20195;-78
2022/01/21 04:25:05;;;;;;;0.43;0.43;;;0.50;99.90;;;;;;5093281;28;20217;-77
2022/01/21 04:27:31;;;;;;;0.40;0.40;;;0.50;99.90;;;;;;5093288;28;20669;-77
2022/01/21 04:29:58;;;;;;;0.40;0.40;;;0.60;99.90;;;;;;5092807;28;20196;-76
2022/01/21 04:32:25;;;;;;;0.40;0.40;;;0.60;99.90;;;;;;5092899;28;20203;-78
2022/01/21 04:34:52;;;;;;;0.40;0.30;;;0.70;99.90;;;;;;5092694;28;20200;-77
2022/01/21 04:37:18;;;;;;;0.40;0.30;;;0.80;99.90;;;;;;5093089;28;20562;-76
2022/01/21 04:39:51;;;;;;;0.40;0.35;;;0.80;99.90;;;;;;5092495;28;20203;-76
2022/01/21 04:47:47;;;;;;;0.40;0.40;;;0.80;99.90;;;;;;5092341;28;20303;-78
2022/01/21 04:50:14;;;;;;;0.50;0.45;;;0.80;99.90;;;;;;5092456;28;20220;-77
2022/01/21 04:52:42;;;;;;;1.40;1.35;;;0.90;99.90;;;;;;5092036;28;20198;-77
2022/01/21 04:55:10;;;;;;;0.40;0.40;;;0.90;99.90;;;;;;5092244;28;20193;-76
2022/01/21 04:57:38;;;;;;;1.35;1.20;;;1.00;99.90;;;;;;5092251;28;20574;-78
2022/01/21 05:00:07;;;;;;;0.40;0.40;;;1.00;99.90;;;;;;5092167;28;20196;-76
2022/01/21 05:02:35;;;;;;;0.40;0.40;;;1.00;99.90;;;;;;5092289;28;20194;-77
2022/01/21 05:05:03;;;;;;;0.40;0.40;;;1.10;99.90;;;;;;5092135;28;20216;-77
2022/01/21 05:07:32;;;;;;;0.40;0.40;;;1.20;99.90;;;;;;5091918;28;20196;-78
2022/01/21 05:09:59;;;;;;;0.40;0.35;;;1.20;99.90;;;;;;5091357;28;20195;-76
2022/01/21 05:12:28;;;;;;;0.60;0.60;;;1.20;99.90;;;;;;5091916;28;20208;-78
2022/01/21 05:15:10;;;;;;;0.40;0.40;;;1.30;99.90;;;;;;5091802;28;20208;-77
2022/01/21 05:17:43;;;;;;;0.40;0.40;;;1.30;99.90;;;;;;5091986;28;20851;-77
2022/01/21 05:20:11;;;;;;;0.40;0.40;;;1.30;99.90;;;;;;5091774;28;20232;-76
2022/01/21 05:22:38;;;;;;;0.40;0.30;;;1.30;99.90;;;;;;5091324;28;20196;-77
2022/01/21 05:25:05;;;;;;;0.40;0.30;;;1.30;99.90;;;;;;5091702;28;20231;-78
2022/01/21 05:27:33;;;;;;;0.40;0.30;;;1.30;99.90;;;;;;5092085;28;20835;-76
2022/01/21 05:30:00;;;;;;;0.40;0.30;;;1.30;99.90;;;;;;5091906;28;20215;-76
2022/01/21 05:32:27;;;;;;;0.40;0.30;;;1.30;99.90;;;;;;5091943;28;20200;-76
2022/01/21 05:34:54;;;;;;;0.70;0.70;;;1.30;99.90;;;;;;5092197;28;20217;-77
2022/01/21 05:37:21;;;;;;;0.40;0.30;;;1.20;99.90;;;;;;5091827;28;20218;-76
2022/01/21 05:39:47;;;;;;;0.40;0.35;;;1.10;99.90;;;;;;5091981;28;20204;-76
2022/01/21 05:42:14;;;;;;;0.40;0.40;;;1.10;99.90;;;;;;5091706;28;20671;-77
2022/01/21 05:47:26;;;;;;;0.40;0.40;;;1.00;99.90;;;;;;5091614;28;20207;-77
2022/01/21 05:49:53;;;;;;;0.80;0.80;;;1.00;99.90;;;;;;5091561;28;20197;-77
2022/01/21 05:52:27;;;;;;;0.40;0.38;;;1.00;99.90;;;;;;5091948;28;20192;-78
2022/01/21 05:54:54;;;;;;;0.40;0.40;;;1.00;99.90;;;;;;5092141;28;20731;-77
2022/01/21 05:57:21;;;;;;;0.40;0.35;;;0.90;99.90;;;;;;5091652;28;20670;-78
2022/01/21 05:59:49;;;;;;;0.40;0.40;;;0.90;99.90;;;;;;5091772;28;20204;-77
2022/01/21 06:02:17;;;;;;;0.40;0.40;;;0.90;99.90;;;;;;5091618;28;20197;-77
2022/01/21 06:04:46;;;;;;;0.40;0.30;;;0.80;99.90;;;;;;5091697;28;20216;-77
2022/01/21 06:07:13;;;;;;;0.40;0.40;;;0.80;99.90;;;;;;5091839;28;20262;-78
2022/01/21 06:09:43;;;;;;;0.40;0.40;;;0.80;99.90;;;;;;5091583;28;20219;-77
2022/01/21 06:12:10;;;;;;;0.40;0.40;;;0.80;99.90;;;;;;5092871;28;20730;-78
2022/01/21 06:14:38;;;;;;;0.40;0.40;;;0.80;99.90;;;;;;5092165;28;20536;-76
2022/01/21 06:17:07;;;;;;;0.40;0.30;;;0.90;99.90;;;;;;5091790;28;20616;-77
2022/01/21 06:19:33;;;;;;;0.60;0.50;;;0.90;99.90;;;;;;5091762;28;20688;-76
2022/01/21 06:22:00;;;;;;;0.40;0.30;;;0.90;99.90;;;;;;5091451;28;20223;-77
2022/01/21 06:24:27;;;;;;;0.40;0.40;;;1.00;99.90;;;;;;5091768;28;20203;-76
2022/01/21 06:26:59;;;;;;;0.40;0.40;;;0.90;99.90;;;;;;5092001;28;20217;-76
2022/01/21 06:29:26;;;;;;;0.40;0.38;;;0.90;99.90;;;;;;5091712;28;20198;-77
2022/01/21 06:31:52;;;;;;;0.40;0.40;;;0.90;99.90;;;;;;5094800;28;20224;-75
2022/01/21 06:34:21;;;;;;;0.40;0.40;;;0.80;99.90;;;;;;5097905;28;20199;-78
2022/01/21 06:36:48;;;;;;;0.40;0.30;;;0.80;99.90;;;;;;5095962;28;20196;-77
2022/01/21 06:39:15;;;;;;;1.67;1.58;;;0.80;99.90;;;;;;5094879;28;20201;-76
2022/01/21 06:41:44;;;;;;;1.45;1.40;;;0.80;99.90;;;;;;5095215;28;20221;-77
2022/01/21 06:44:11;;;;;;;0.40;0.35;;;0.80;99.90;;;;;;5096126;28;20203;-77
2022/01/21 06:46:37;;;;;;;0.43;0.43;;;0.90;99.90;;;;;;5095074;28;20232;-77
2022/01/21 06:49:04;;;;;;;0.40;0.40;;;0.90;99.90;;;;;;5096272;28;20196;-77
2022/01/21 06:51:32;;;;;;;0.60;0.60;;;1.00;99.90;;;;;;5095605;28;20590;-77
2022/01/21 06:53:59;;;;;;;4.65;1.27;;;1.00;99.90;;;;;;5095539;28;20197;-77
2022/01/21 06:56:26;;;;;;;0.75;0.75;;;1.10;99.90;;;;;;5096636;28;20263;-77
2022/01/21 06:58:52;;;;;;;0.50;0.40;;;1.10;99.90;;;;;;5094974;28;20228;-77
2022/01/21 07:01:19;;;;;;;0.50;0.50;;;1.20;99.90;;;;;;5095172;28;20710;-77
2022/01/21 07:03:46;;;;;;;0.70;0.70;;;1.20;99.90;;;;;;5094866;28;20566;-77
2022/01/21 07:06:13;;;;;;;0.40;0.40;;;1.30;99.90;;;;;;5095419;28;20220;-77
2022/01/21 07:08:41;;;;;;;0.40;0.40;;;1.30;99.90;;;;;;5095678;28;20201;-77
2022/01/21 07:11:08;;;;;;;0.40;0.40;;;1.30;99.90;;;;;;5094196;28;20224;-77
2022/01/21 07:13:34;;;;;;;0.50;0.50;;;1.30;99.90;;;;;;5095008;28;20197;-77
2022/01/21 07:16:01;;;;;;;0.40;0.30;;;1.20;99.90;;;;;;5094665;28;20223;-77
2022/01/21 07:18:28;;;;;;;0.40;0.35;;;1.20;99.90;;;;;;5094734;28;20695;-77
2022/01/21 07:20:55;;;;;;;0.80;0.80;;;1.20;99.90;;;;;;5094233;28;20225;-78
2022/01/21 07:23:22;;;;;;;0.40;0.40;;;1.10;99.90;;;;;;5094178;28;20825;-77
2022/01/21 07:25:50;;;;;;;1.17;1.08;;;1.10;99.90;;;;;;5093954;28;20219;-75
2022/01/21 07:28:16;;;;;;;0.73;0.73;;;1.00;99.90;;;;;;5094761;28;20190;-76
2022/01/21 07:30:43;;;;;;;0.40;0.40;;;1.00;99.90;;;;;;5094397;28;20274;-76
2022/01/21 07:33:10;;;;;;;0.40;0.30;;;1.00;99.90;;;;;;5094349;28;20943;-75
2022/01/21 07:35:37;;;;;;;0.40;0.40;;;1.00;99.90;;;;;;5093775;28;20193;-77
2022/01/21 07:38:04;;;;;;;0.40;0.40;;;0.90;99.90;;;;;;5094293;28;20220;-75
2022/01/21 07:40:30;;;;;;;0.40;0.35;;;0.90;99.90;;;;;;5093397;28;20221;-75
2022/01/21 07:42:58;;;;;;;0.40;0.30;;;0.90;99.90;;;;;;5093852;28;20201;-75
2022/01/21 07:45:26;;;;;;;0.40;0.40;;;0.90;99.90;;;;;;5093627;28;20852;-75
2022/01/21 07:47:52;;;;;;;0.40;0.40;;;0.90;99.90;;;;;;5090683;28;20208;-75
2022/01/21 07:50:19;;;;;;;0.40;0.40;;;0.90;99.90;;;;;;5091430;28;20215;-75
2022/01/21 07:52:46;;;;;;;0.40;0.30;;;0.90;99.90;;;;;;5093684;28;20196;-75
2022/01/21 07:55:13;;;;;;;0.70;0.70;;;0.90;99.90;;;;;;5093967;28;20190;-76
2022/01/21 07:57:39;;;;;;;0.50;0.50;;;0.90;99.90;;;;;;5093539;28;20193;-75
2022/01/21 08:00:09;;;;;;;0.40;0.40;;;0.90;99.90;;;;;;5093507;28;20192;-75
2022/01/21 08:02:36;;;;;;;1.58;1.50;;;0.90;99.90;;;;;;5093392;28;20192;-76
2022/01/21 08:05:05;;;;;;;0.40;0.40;;;1.00;99.90;;;;;;5093336;28;20199;-75
2022/01/21 08:07:31;;;;;;;0.40;0.40;;;0.90;99.90;;;;;;5093078;28;20195;-75
2022/01/21 08:09:58;;;;;;;0.40;0.40;;;0.90;99.90;;;;;;5093278;28;20193;-75
2022/01/21 08:12:25;;;;;;;0.40;0.40;;;0.90;99.90;;;;;;5093020;28;20207;-75
2022/01/21 08:14:51;;;;;;;3.03;1.65;;;0.90;99.90;;;;;;5093140;28;20192;-75
2022/01/21 08:17:19;;;;;;;0.95;0.95;;;1.00;99.90;;;;;;5093681;28;20199;-75
2022/01/21 08:19:47;;;;;;;0.63;0.63;;;1.10;99.90;;;;;;5092943;28;20190;-75
2022/01/21 08:22:14;;;;;;;0.73;0.73;;;1.10;99.90;;;;;;5093385;28;20213;-75
2022/01/21 08:24:40;;;;;;;0.50;0.50;;;1.20;99.90;;;;;;5093524;28;20189;-76
2022/01/21 08:27:07;;;;;;;0.40;0.40;;;1.20;99.90;;;;;;5092914;28;20243;-76
2022/01/21 08:29:34;;;;;;;0.40;0.40;;;1.40;99.90;;;;;;5092917;28;20193;-75
2022/01/21 08:32:01;;;;;;;0.40;0.40;;;1.50;99.90;;;;;;5093081;28;20665;-75
2022/01/21 08:34:32;;;;;;;0.40;0.40;;;1.60;99.90;;;;;;5092800;28;20204;-76
2022/01/21 08:36:59;;;;;;;0.40;0.40;;;1.60;99.90;;;;;;5093706;28;20192;-76
2022/01/21 08:39:26;;;;;;;0.40;0.30;;;1.60;99.90;;;;;;5092990;28;20197;-76
2022/01/21 08:41:53;;;;;;;0.40;0.40;;;1.60;99.90;;;;;;5092684;28;20219;-73
2022/01/21 08:44:19;;;;;;;0.50;0.50;;;1.60;99.90;;;;;;5092808;28;20209;-76
2022/01/21 08:46:46;;;;;;;0.40;0.30;;;1.60;99.90;;;;;;5092832;28;20303;-75
2022/01/21 08:49:13;;;;;;;0.50;0.50;;;1.70;99.90;;;;;;5090480;28;20213;-77
2022/01/21 08:51:49;;;;;;;0.40;0.40;;;1.90;99.90;;;;;;5083438;28;20757;-76
2022/01/21 08:54:17;;;;;;;0.60;0.60;;;2.00;99.90;;;;;;5071615;28;20185;-76
2022/01/21 08:56:44;;;;;;;0.40;0.40;;;2.00;99.90;;;;;;5072711;28;20197;-75
2022/01/21 08:59:11;;;;;;;0.40;0.40;;;2.20;99.90;;;;;;5071971;28;20205;-75
2022/01/21 09:01:38;;;;;;;0.40;0.40;;;2.30;99.90;;;;;;5072035;28;20217;-75
2022/01/21 09:04:05;;;;;;;0.70;0.70;;;2.40;99.90;;;;;;5071391;28;20218;-75
2022/01/21 09:06:32;;;;;;;0.40;0.40;;;2.50;99.90;;;;;;5071840;28;20251;-75
2022/01/21 09:09:01;;;;;;;1.02;0.93;;;2.60;99.90;;;;;;5072126;28;20196;-75
2022/01/21 09:11:28;;;;;;;0.60;0.60;;;2.60;99.90;;;;;;5072194;28;20309;-78
2022/01/21 09:13:56;;;;;;;5.65;2.55;;;2.60;99.90;;;;;;5071944;28;20228;-78
2022/01/21 09:16:23;;;;;;;0.40;0.40;;;2.60;99.90;;;;;;5071055;28;20212;-76
2022/01/21 09:18:51;;;;;;;0.40;0.40;;;2.60;99.90;;;;;;5071960;28;20247;-76
2022/01/21 09:21:19;;;;;;;0.77;0.77;;;2.70;99.90;;;;;;5061415;22;20219;-80
2022/01/21 09:23:48;;;;;;;0.50;0.50;;;2.80;99.90;;;;;;4999073;28;20197;-81
2022/01/21 09:26:18;;;;;;;0.57;0.57;;;3.20;99.90;;;;;;5013635;28;20263;-81
2022/01/21 09:28:46;;;;;;;1.20;1.10;;;4.10;99.90;;;;;;5012276;28;20211;-79
2022/01/21 09:31:14;;;;;;;8.10;2.15;;;5.00;99.90;;;;;;5014437;28;20252;-77
2022/01/21 09:33:41;;;;;;;0.50;0.40;;;5.90;99.90;;;;;;5014365;28;20204;-79
2022/01/21 09:36:09;;;;;;;0.50;0.40;;;6.70;99.90;;;;;;5014214;28;20729;-79
2022/01/21 09:38:35;;;;;;;13.90;0.98;;;7.20;99.90;;;;;;5014366;28;20201;-80
2022/01/21 09:41:03;;;;;;;0.88;0.82;;;7.20;99.90;;;;;;5014264;28;20224;-80
2022/01/21 09:43:34;;;;;;;0.65;0.65;;;6.50;99.90;;;;;;5014074;28;20200;-80
2022/01/21 09:46:05;;;;;;;3.88;3.47;;;5.70;99.90;;;;;;5014729;28;20215;-79
2022/01/21 09:48:38;;;;;;;0.50;0.40;;;5.10;99.90;;;;;;5014337;28;20195;-80
2022/01/21 09:51:06;;;;;;;1.35;0.98;;;5.00;99.90;;;;;;5013256;28;20693;-80
2022/01/21 09:53:35;;;;;;;0.75;0.75;;;4.90;99.90;;;;;;5014174;28;20195;-80
2022/01/21 09:56:05;;;;;;;2.30;1.52;;;4.90;99.90;;;;;;5014007;28;20274;-82
2022/01/21 09:58:34;;;;;;;0.85;0.85;;;5.40;99.90;;;;;;5013551;28;20247;-80
2022/01/21 10:01:05;;;;;;;0.60;0.50;;;6.00;99.90;;;;;;5013447;28;20223;-80
2022/01/21 10:03:32;;;;;;;5.28;2.28;;;6.30;99.90;;;;;;5014290;28;20226;-79
2022/01/21 10:06:00;;;;;;;0.50;0.40;;;6.50;99.90;;;;;;5015435;28;20229;-79
2022/01/21 10:08:29;;;;;;;0.50;0.40;;;6.60;99.90;;;;;;5017932;28;20695;-82
2022/01/21 10:10:55;;;;;;;0.50;0.40;;;6.60;99.90;;;;;;5017240;28;20224;-82
2022/01/21 10:13:23;;;;;;;0.90;0.90;;;6.80;99.90;;;;;;5017516;28;20204;-79
2022/01/21 10:15:51;;;;;;;0.50;0.40;;;6.90;99.90;;;;;;5018155;28;20304;-82
2022/01/21 10:18:20;;;;;;;1.67;1.58;;;6.80;99.90;;;;;;5017983;28;20207;-81
2022/01/21 10:21:01;;;;;;;0.50;0.40;;;6.60;99.90;;;;;;5017257;28;20229;-79
2022/01/21 10:23:29;;;;;;;0.60;0.50;;;6.80;99.90;;;;;;5017304;28;20682;-82
2022/01/21 10:26:02;;;;;;;0.50;0.40;;;7.20;99.90;;;;;;5018164;28;20203;-79
2022/01/21 10:28:29;;;;;;;0.70;0.70;;;7.40;99.90;;;;;;5017774;28;20181;-81
2022/01/21 10:31:08;;;;;;;0.50;0.40;;;7.50;99.90;;;;;;5017201;28;20633;-82
2022/01/21 10:33:39;;;;;;;0.50;0.40;;;7.60;99.90;;;;;;5017739;28;20201;-82
2022/01/21 10:36:13;;;;;;;0.50;0.40;;;7.90;99.90;;;;;;5017374;28;20206;-77
2022/01/21 10:38:42;;;;;;;0.50;0.40;;;8.40;99.90;;;;;;5017524;28;20190;-79
2022/01/21 10:41:11;;;;;;;0.85;0.85;;;8.90;99.90;;;;;;5017013;28;20219;-81
2022/01/21 10:43:38;;;;;;;0.50;0.50;;;9.40;99.90;;;;;;5017371;28;20195;-81
2022/01/21 10:46:07;;;;;;;0.50;0.40;;;9.70;99.90;;;;;;5017234;28;20200;-79
2022/01/21 10:48:58;;;;;;;0.50;0.40;;;10.10;99.90;;;;;;5017168;28;20192;-80
2022/01/21 10:51:28;;;;;;;0.50;0.50;;;10.10;99.90;;;;;;5017194;28;20226;-80
2022/01/21 10:53:56;;;;;;;0.50;0.40;;;9.80;99.90;;;;;;5018158;28;20196;-81
2022/01/21 10:56:25;;;;;;;0.50;0.40;;;9.60;99.90;;;;;;5017005;28;20199;-81
2022/01/21 10:58:53;;;;;;;1.35;1.25;;;9.50;99.90;;;;;;5016710;28;20207;-78
2022/01/21 11:01:28;;;;;;;0.70;0.65;;;9.20;99.90;;;;;;5018111;28;20489;-78
2022/01/21 11:04:00;;;;;;;0.50;0.40;;;9.00;99.90;;;;;;5018721;28;20210;-82
2022/01/21 11:06:34;;;;;;;0.98;0.98;;;8.70;99.90;;;;;;5017346;28;20250;-78
2022/01/21 11:09:20;;;;;;;0.50;0.40;;;8.20;99.90;;;;;;5016958;28;20178;-78
2022/01/21 11:11:49;;;;;;;0.50;0.40;;;7.80;99.90;;;;;;5017332;28;20224;-81
2022/01/21 11:14:17;;;;;;;0.50;0.40;;;7.60;99.90;;;;;;5017754;28;20198;-81
2022/01/21 11:16:47;;;;;;;0.50;0.40;;;7.50;99.90;;;;;;5016227;28;20192;-80
2022/01/21 11:19:16;;;;;;;0.50;0.40;;;7.40;99.90;;;;;;5016115;28;20303;-80
2022/01/21 11:21:51;;;;;;;1.05;0.70;;;7.60;99.90;;;;;;5015926;28;20228;-80
2022/01/21 11:24:19;;;;;;;0.50;0.40;;;7.50;99.90;;;;;;5015418;28;20560;-78
2022/01/21 11:27:10;;;;;;;0.50;0.40;;;7.20;99.90;;;;;;5015237;28;20251;-81
2022/01/21 11:29:37;;;;;;;0.50;0.40;;;7.20;99.90;;;;;;5014747;28;20186;-80
2022/01/21 11:32:06;;;;;;;0.55;0.45;;;7.00;99.90;;;;;;5015096;28;20218;-78
2022/01/21 11:34:34;;;;;;;0.50;0.40;;;6.90;99.90;;;;;;5015378;28;20203;-80
2022/01/21 11:37:01;;;;;;;0.50;0.50;;;7.00;99.90;;;;;;5015290;28;20192;-80
2022/01/21 11:39:30;;;;;;;0.50;0.40;;;7.00;99.90;;;;;;5014755;28;20199;-78
2022/01/21 11:41:59;;;;;;;0.50;0.40;;;7.10;99.90;;;;;;5014937;28;20219;-82
2022/01/21 11:44:28;;;;;;;0.50;0.50;;;7.10;99.90;;;;;;5015541;28;20202;-80
2022/01/21 11:47:15;;;;;;;0.50;0.40;;;7.20;99.90;;;;;;5015243;28;20215;-78
2022/01/21 11:49:54;;;;;;;0.60;0.50;;;7.10;99.90;;;;;;5015254;28;20259;-78
2022/01/21 11:52:21;;;;;;;1.77;1.30;;;7.20;99.90;;;;;;5015086;28;20305;-83
2022/01/21 11:54:50;;;;;;;0.50;0.40;;;7.40;99.90;;;;;;5016314;28;20205;-82
2022/01/21 11:57:26;;;;;;;0.70;0.70;;;7.50;99.90;;;;;;5015515;28;20200;-81
2022/01/21 11:59:59;;;;;;;0.50;0.40;;;7.60;99.90;;;;;;5015483;28;20187;-82
2022/01/21 12:02:27;;;;;;;0.50;0.40;;;7.60;99.90;;;;;;5014791;28;20217;-81
2022/01/21 12:04:57;;;;;;;0.50;0.40;;;7.70;99.90;;;;;;5015705;28;20210;-81
2022/01/21 12:07:58;;;;;;;0.50;0.50;;;7.80;99.90;;;;;;5015799;28;20223;-82
2022/01/21 12:10:40;;;;;;;0.50;0.40;;;7.90;99.90;;;;;;5015296;28;20549;-82
2022/01/21 12:13:12;;;;;;;0.50;0.40;;;8.00;99.90;;;;;;5014881;28;20179;-83
2022/01/21 12:19:25;;;;;;;0.50;0.40;;;8.00;99.90;;;;;;5021501;28;20192;-81
2022/01/21 12:21:54;;;;;;;1.38;1.38;;;8.00;99.90;;;;;;5014876;28;20732;-79
2022/01/21 12:24:47;;;;;;;0.60;0.57;;;8.00;99.90;;;;;;5015475;28;20203;-78
2022/01/21 12:27:14;;;;;;;0.50;0.40;;;7.90;99.90;;;;;;5015257;28;20240;-82
2022/01/21 12:29:41;;;;;;;0.50;0.40;;;7.70;99.90;;;;;;5014745;28;20679;-80
2022/01/21 12:32:16;;;;;;;0.50;0.40;;;7.60;99.90;;;;;;5014942;28;20276;-78
2022/01/21 12:35:11;;;;;;;0.50;0.40;;;7.50;99.90;;;;;;5015409;28;20276;-80
2022/01/21 12:37:52;;;;;;;0.50;0.40;;;7.40;99.90;;;;;;5014723;28;20195;-81
2022/01/21 12:40:36;;;;;;;0.50;0.40;;;7.10;99.90;;;;;;5014416;28;20197;-82
2022/01/21 12:43:36;;;;;;;0.50;0.40;;;7.20;99.90;;;;;;5015438;28;20202;-81
2022/01/21 12:46:04;;;;;;;0.50;0.40;;;7.10;99.90;;;;;;5015598;28;20206;-81
2022/01/21 12:48:34;;;;;;;0.82;0.50;;;7.00;99.90;;;;;;5017091;28;20229;-78
2022/01/21 12:51:13;;;;;;;0.50;0.40;;;7.00;99.90;;;;;;5015052;28;20274;-80
2022/01/21 12:55:55;;;;;;;0.50;0.40;;;6.80;99.90;;;;;;5015468;28;20196;-82
2022/01/21 12:56:33;;;;;;;0.50;0.40;;;6.70;99.90;;;;;;5015638;28;20265;-83
2022/01/21 12:59:00;;;;;;;0.88;0.88;;;6.80;99.90;;;;;;5014362;28;20630;-78
2022/01/21 13:01:26;;;;;;;0.50;0.40;;;6.70;99.90;;;;;;5014924;28;20216;-81
2022/01/21 13:03:57;;;;;;;3.70;1.60;;;6.80;99.90;;;;;;5015644;28;20228;-81
2022/01/21 13:06:33;;;;;;;0.50;0.40;;;6.80;99.90;;;;;;5015538;28;20193;-81
2022/01/21 13:09:06;;;;;;;0.50;0.50;;;6.70;99.90;;;;;;5014600;28;20204;-80
2022/01/21 13:11:35;;;;;;;0.50;0.40;;;6.80;99.90;;;;;;5014595;28;20221;-84
2022/01/21 13:14:22;;;;;;;0.60;0.60;;;6.70;99.90;;;;;;5016510;28;20205;-83
2022/01/21 13:16:55;;;;;;;0.50;0.43;;;6.60;99.90;;;;;;5020442;28;20212;-81
2022/01/21 13:19:22;;;;;;;0.50;0.40;;;6.50;99.90;;;;;;5014966;28;20192;-80
2022/01/21 13:21:49;;;;;;;0.50;0.40;;;6.40;99.90;;;;;;5014948;28;20225;-82
2022/01/21 13:24:26;;;;;;;3.15;2.78;;;6.40;99.90;;;;;;5014597;28;20196;-81
2022/01/21 13:26:53;;;;;;;0.50;0.40;;;6.40;99.90;;;;;;5014546;28;20211;-79
2022/01/21 13:29:28;;;;;;;1.13;1.05;;;6.30;99.90;;;;;;5014031;28;20585;-80
2022/01/21 13:31:57;;;;;;;0.55;0.55;;;6.30;99.90;;;;;;5015301;28;20271;-82
2022/01/21 13:34:28;;;;;;;1.40;0.93;;;6.20;99.90;;;;;;5014443;28;20202;-79
2022/01/21 13:36:56;;;;;;;0.50;0.40;;;6.10;99.90;;;;;;5014717;28;20207;-81
2022/01/21 13:39:27;;;;;;;0.50;0.40;;;6.10;99.90;;;;;;5014104;28;20205;-82
2022/01/21 13:41:59;;;;;;;0.50;0.40;;;6.10;99.90;;;;;;5014133;28;20215;-82
2022/01/21 13:44:28;;;;;;;0.50;0.50;;;6.10;99.90;;;;;;5014287;28;20203;-81
2022/01/21 13:46:57;;;;;;;0.50;0.40;;;6.10;99.90;;;;;;5013822;28;20200;-81
2022/01/21 13:49:25;;;;;;;0.50;0.40;;;6.10;99.90;;;;;;5013470;28;20251;-83
2022/01/21 13:52:00;;;;;;;0.50;0.40;;;6.10;99.90;;;;;;5014290;28;20231;-81
2022/01/21 13:54:44;;;;;;;0.50;0.40;;;6.10;99.90;;;;;;5014452;28;20196;-80
2022/01/21 13:57:11;;;;;;;0.50;0.50;;;6.10;99.90;;;;;;5014432;28;20196;-81
2022/01/21 13:59:42;;;;;;;0.50;0.40;;;6.00;99.90;;;;;;5013792;28;20203;-79